Aviation Digital Data Service (ADDS)

Output produced by METARs form (1054 UTC 07 December 2022)
found at http://www.aviationweather.gov/metar/data/
 
Forecast for: KLAS (LAS VEGAS , NV, US)
Text: KLAS 070846Z 0709/0812 22005KT P6SM FEW080 SCT200
Forecast period: 0900 to 2100 UTC 07 December 2022
Forecast type: FROM: standard forecast or significant change
Winds: from the SW (220 degrees) at 6 MPH (5 knots; 2.6 m/s)
Visibility: 6 or more miles (10+ km)
Ceiling: at least 12,000 feet AGL
Clouds: few clouds at 8000 feet AGL
scattered clouds at 20000 feet AGL
Weather: no significant weather forecast for this period
Text: FM072100 23011KT P6SM SCT100 SCT200
Forecast period: 2100 UTC 07 December 2022 to 0400 UTC 08 December 2022
Forecast type: FROM: standard forecast or significant change
Winds: from the SW (230 degrees) at 13 MPH (11 knots; 5.7 m/s)
Visibility: 6 or more miles (10+ km)
Ceiling: at least 12,000 feet AGL
Clouds: scattered clouds at 10000 feet AGL
scattered clouds at 20000 feet AGL
Weather: no significant weather forecast for this period
Text: FM080400 21007KT P6SM SKC
Forecast period: 0400 to 1200 UTC 08 December 2022
Forecast type: FROM: standard forecast or significant change
Winds: from the SSW (210 degrees) at 8 MPH (7 knots; 3.6 m/s)
Visibility: 6 or more miles (10+ km)
Clouds: clear skies
Weather: no significant weather forecast for this period